메인 페이지
METAR-TAF:

METAR-TAF

공항 :

Arlington Municipal Airport

알링턴, 텍사스, 미국

위도: 32-39-50N, 경도: 097-05-45W, 고도: 192m

현재 날씨관측

예보는 31분 전, 18:53시(UTC)에 발표되었습니다.
여러 방향의 바람 6kt
온도 26°C
습도 28%
기압 1014 hPa
시정: 16.1km
맑음

METAR: KGKY 191853Z VRB06KT 10SM CLR 26/06 A2993 RMK AO2 SLP131 T02560056

시각: 13:24 (19:24 UTC)

예보

예보는 1 시간 51분 전, 17:33시(UTC)에 발표되었습니다.
예보 대상 시간: 19일 18시부터 20일 18시까지 (UTC)
남남동8kt
시정: 10km
맑음
20일 1000시부터 (UTC)
9kt
시정: 10km
고도 2000ft 상공 구름 많음
20일 1400시부터 (UTC)
남남동12kt
시정: 10km
고도 1800ft 상공 흐림

TAF: KGKY 191733Z 1918/2018 16008KT P6SM SKC FM201000 17009KT P6SM BKN020 FM201400 16012KT P6SM OVC018

4,000개 이상의 공항 관측 자료 및 예보 (METAR 및 TAF 보고).

지도상에서 검색 가능한 기상관측소가 노란 점과 빨간 점으로 표시되어 있습니다.

기상관측소 명을 보려면 표시 위로 마우스를 이동하세요.

날씨 관측과 예보를 보려면 클릭하세요.

지도 변경 : 확대하려면 엑스 표시가 있는 녹색 버튼, 축소하려면 빼기 표시가 있는 녹색 버튼, 다음 페이지의 지도를 보려면 녹색 화살표를 클릭하세요.


METAR-TAF: